createdAt,value
2019-01-19T00:00:24.932Z,94762.34
2019-01-19T00:03:06.291Z,94758.26
2019-01-19T00:06:12.303Z,94768.18
2019-01-19T00:09:07.884Z,94765.73
2019-01-19T00:12:04.613Z,94770.09
2019-01-19T00:15:08.750Z,94772.48
2019-01-19T00:18:16.996Z,94773.47
2019-01-19T00:21:08.743Z,94775.59
2019-01-19T00:24:27.700Z,94777.50
2019-01-19T00:27:36.076Z,94782.59
2019-01-19T00:30:36.219Z,94780.23
2019-01-19T00:33:51.278Z,94781.77
2019-01-19T00:36:51.932Z,94788.02
2019-01-19T00:39:59.299Z,94790.10
2019-01-19T00:42:54.659Z,94795.40
2019-01-19T00:46:01.808Z,94798.42
2019-01-19T00:49:09.189Z,94796.82
2019-01-19T00:52:16.501Z,94796.35
2019-01-19T00:55:23.233Z,94792.36
2019-01-19T00:58:27.644Z,94789.88
2019-01-19T01:01:29.719Z,94784.88
2019-01-19T01:04:43.724Z,94784.00
2019-01-19T01:08:05.374Z,94788.13
2019-01-19T01:11:25.799Z,94786.77
2019-01-19T01:14:31.714Z,94788.11
2019-01-19T01:17:18.762Z,94782.71
2019-01-19T01:20:32.970Z,94784.58
2019-01-19T01:23:19.002Z,94777.91
2019-01-19T01:26:54.477Z,94777.18
2019-01-19T01:30:13.803Z,94776.40
2019-01-19T01:33:16.454Z,94785.31
2019-01-19T01:36:25.713Z,94786.48
2019-01-19T01:39:31.860Z,94790.83
2019-01-19T01:42:50.436Z,94788.72
2019-01-19T01:46:13.941Z,94789.94
2019-01-19T01:49:21.235Z,94795.63
2019-01-19T01:52:44.304Z,94796.55
2019-01-19T01:55:39.629Z,94800.39
2019-01-19T01:58:28.044Z,94798.70
2019-01-19T02:01:35.363Z,94791.69
2019-01-19T02:04:55.535Z,94789.59
2019-01-19T02:07:55.199Z,94789.20
2019-01-19T02:11:00.393Z,94793.59
2019-01-19T02:13:52.504Z,94792.69
2019-01-19T02:17:08.708Z,94783.55
2019-01-19T02:20:10.735Z,94788.72
2019-01-19T02:23:16.831Z,94794.22
2019-01-19T02:26:34.002Z,94797.91
2019-01-19T02:29:53.956Z,94800.66
2019-01-19T02:33:20.276Z,94795.37
2019-01-19T02:36:55.840Z,94791.02
2019-01-19T02:40:06.847Z,94796.38
2019-01-19T02:42:47.171Z,94790.29
2019-01-19T02:45:54.896Z,94792.34
2019-01-19T02:48:50.291Z,94800.56
2019-01-19T02:51:41.103Z,94821.09
2019-01-19T02:54:54.618Z,94800.05
2019-01-19T02:58:14.912Z,94798.30
2019-01-19T03:01:26.203Z,94796.21
2019-01-19T03:04:34.511Z,94793.73
2019-01-19T03:07:35.428Z,94790.80
2019-01-19T03:10:47.450Z,94799.22
2019-01-19T03:14:03.634Z,94796.02
2019-01-19T03:17:03.400Z,94796.11
2019-01-19T03:20:17.760Z,94789.34
2019-01-19T03:23:30.223Z,94785.84
2019-01-19T03:26:36.962Z,94787.94
2019-01-19T03:29:34.642Z,94781.67
2019-01-19T03:32:46.421Z,94786.47
2019-01-19T03:35:39.906Z,94785.23
2019-01-19T03:38:33.252Z,94779.27
2019-01-19T03:41:36.424Z,94783.59
2019-01-19T03:44:37.695Z,94788.92
2019-01-19T03:48:09.951Z,94782.24
2019-01-19T03:51:24.263Z,94783.58
2019-01-19T03:54:20.285Z,94796.31
2019-01-19T03:57:14.251Z,94802.14
2019-01-19T04:00:13.932Z,94800.70
2019-01-19T04:03:23.347Z,94797.87
2019-01-19T04:06:49.007Z,94805.26
2019-01-19T04:09:51.340Z,94811.30
2019-01-19T04:13:04.597Z,94805.06
2019-01-19T04:16:30.938Z,94811.50
2019-01-19T04:19:37.962Z,94809.22
2019-01-19T04:22:30.364Z,94812.30
2019-01-19T04:25:30.832Z,94809.20
2019-01-19T04:28:03.165Z,94809.05
2019-01-19T04:30:33.673Z,94815.86
2019-01-19T04:33:04.184Z,94808.55
2019-01-19T04:35:34.829Z,94814.97
2019-01-19T04:38:05.529Z,94815.66
2019-01-19T04:40:35.983Z,94823.63
2019-01-19T04:43:06.681Z,94818.80
2019-01-19T04:45:37.138Z,94825.87
2019-01-19T04:48:07.495Z,94820.59
2019-01-19T04:50:38.186Z,94822.14
2019-01-19T04:53:08.614Z,94827.95
2019-01-19T04:55:38.941Z,94834.42
2019-01-19T04:58:09.606Z,94830.84
2019-01-19T05:00:40.249Z,94836.13
2019-01-19T05:03:10.647Z,94832.67
2019-01-19T05:05:40.961Z,94832.57
2019-01-19T05:08:11.264Z,94828.11
2019-01-19T05:10:42.146Z,94833.75
2019-01-19T05:13:12.701Z,94837.12
2019-01-19T05:15:43.686Z,94833.53
2019-01-19T05:18:14.583Z,94840.34
2019-01-19T05:20:45.272Z,94836.75
2019-01-19T05:23:15.566Z,94849.03
2019-01-19T05:25:45.981Z,94850.93
2019-01-19T05:28:16.573Z,94841.23
2019-01-19T05:30:46.905Z,94842.37
2019-01-19T05:33:17.400Z,94843.63
2019-01-19T05:35:48.134Z,94848.91
2019-01-19T05:38:18.482Z,94855.02
2019-01-19T05:40:48.832Z,94851.01
2019-01-19T05:43:19.470Z,94850.15
2019-01-19T05:45:49.811Z,94856.36
2019-01-19T05:48:21.170Z,94858.38
2019-01-19T05:50:51.868Z,94852.45
2019-01-19T05:53:22.326Z,94861.15
2019-01-19T05:55:52.752Z,94856.44
2019-01-19T05:58:23.375Z,94857.16
2019-01-19T06:00:54.131Z,94861.40
2019-01-19T06:03:24.466Z,94860.77
2019-01-19T06:05:55.288Z,94864.30
2019-01-19T06:08:25.627Z,94870.74
2019-01-19T06:10:56.258Z,94875.99
2019-01-19T06:13:26.750Z,94877.08
2019-01-19T06:15:57.091Z,94881.25
2019-01-19T06:18:29.489Z,94887.75
2019-01-19T06:20:59.886Z,94882.57
2019-01-19T06:23:30.168Z,94880.33
2019-01-19T06:26:00.601Z,94876.03
2019-01-19T06:28:31.448Z,94874.52
2019-01-19T06:31:01.753Z,94876.70
2019-01-19T06:33:32.256Z,94875.88
2019-01-19T06:36:02.958Z,94877.34
2019-01-19T06:38:33.259Z,94889.02
2019-01-19T06:41:04.092Z,94884.38
2019-01-19T06:43:34.415Z,94883.70
2019-01-19T06:46:05.059Z,94886.78
2019-01-19T06:48:35.787Z,94886.05
2019-01-19T06:51:06.104Z,94892.26
2019-01-19T06:53:36.481Z,94896.14
2019-01-19T06:56:07.335Z,94895.89
2019-01-19T06:58:37.655Z,94890.77
2019-01-19T07:01:07.999Z,94889.80
2019-01-19T07:03:39.137Z,94891.53
2019-01-19T07:06:09.437Z,94897.56
2019-01-19T07:08:40.874Z,94898.68
2019-01-19T07:11:11.400Z,94898.86
2019-01-19T07:13:42.217Z,94901.45
2019-01-19T07:16:12.936Z,94888.95
2019-01-19T07:18:43.273Z,94891.91
2019-01-19T07:21:13.649Z,94893.46
2019-01-19T07:23:44.405Z,94890.40
2019-01-19T07:26:14.728Z,94896.27
2019-01-19T07:28:45.157Z,94896.70
2019-01-19T07:31:15.781Z,94903.73
2019-01-19T07:33:46.112Z,94908.08
2019-01-19T07:36:16.686Z,94911.83
2019-01-19T07:38:47.632Z,94914.94
2019-01-19T07:41:18.195Z,94918.73
2019-01-19T07:43:48.530Z,94917.09
2019-01-19T07:46:19.554Z,94919.67
2019-01-19T07:48:49.973Z,94922.73
2019-01-19T07:51:20.256Z,94923.13
2019-01-19T07:53:51.056Z,94919.33
2019-01-19T07:56:21.791Z,94925.55
2019-01-19T07:58:52.150Z,94917.56
2019-01-19T08:01:22.657Z,94919.41
2019-01-19T08:03:53.327Z,94922.37
2019-01-19T08:06:23.768Z,94924.07
2019-01-19T08:08:54.098Z,94924.59
2019-01-19T08:11:24.845Z,94926.20
2019-01-19T08:13:55.223Z,94934.38
2019-01-19T08:16:25.980Z,94929.73
2019-01-19T08:18:56.341Z,94926.09
2019-01-19T08:21:26.685Z,94923.92
2019-01-19T08:23:57.351Z,94929.78
2019-01-19T08:26:27.722Z,94939.97
2019-01-19T08:28:58.103Z,94939.39
2019-01-19T08:31:28.811Z,94931.08
2019-01-19T08:33:59.174Z,94936.77
2019-01-19T08:36:29.447Z,94938.34
2019-01-19T08:38:59.971Z,94936.72
2019-01-19T08:41:30.375Z,94940.95
2019-01-19T08:44:03.239Z,94942.77
2019-01-19T08:46:33.641Z,94944.98
2019-01-19T08:49:04.042Z,94948.03
2019-01-19T08:51:34.475Z,94960.17
2019-01-19T08:54:04.961Z,94956.00
2019-01-19T08:56:35.306Z,94961.31
2019-01-19T08:59:06.005Z,94953.94
2019-01-19T09:01:36.638Z,94954.80
2019-01-19T09:04:06.978Z,94952.83
2019-01-19T09:06:37.609Z,94958.53
2019-01-19T09:09:08.925Z,94955.64
2019-01-19T09:11:39.302Z,94959.23
2019-01-19T09:14:10.056Z,94956.84
2019-01-19T09:16:41.772Z,94955.16
2019-01-19T09:19:13.075Z,94959.53
2019-01-19T09:21:43.571Z,94962.07
2019-01-19T09:24:21.617Z,94954.98
2019-01-19T09:26:52.375Z,94956.11
2019-01-19T09:29:22.959Z,94948.16
2019-01-19T09:31:53.407Z,94943.92
2019-01-19T09:34:23.939Z,94949.96
2019-01-19T09:36:54.699Z,94946.38
2019-01-19T09:39:24.995Z,94937.59
2019-01-19T09:41:56.163Z,94946.45
2019-01-19T09:44:26.756Z,94923.05
2019-01-19T09:46:57.087Z,94927.38
2019-01-19T09:49:28.437Z,94923.02
2019-01-19T09:51:58.812Z,94919.16
2019-01-19T09:54:31.854Z,94910.36
2019-01-19T09:57:02.695Z,94915.77
2019-01-19T09:59:33.068Z,94916.10
2019-01-19T10:02:03.658Z,94917.16
2019-01-19T10:04:34.330Z,94909.45
2019-01-19T10:07:04.636Z,94905.98
2019-01-19T10:09:34.979Z,94903.45
2019-01-19T10:12:05.728Z,94899.66
2019-01-19T10:14:36.002Z,94897.95
2019-01-19T10:17:07.367Z,94896.53
2019-01-19T10:19:37.799Z,94889.73
2019-01-19T10:22:08.096Z,94887.22
2019-01-19T10:24:38.750Z,94894.23
2019-01-19T10:27:09.151Z,94884.22
2019-01-19T10:29:39.596Z,94886.94
2019-01-19T10:32:10.189Z,94889.16
2019-01-19T10:34:40.495Z,94885.17
2019-01-19T10:37:10.819Z,94884.60
2019-01-19T10:39:41.443Z,94885.66
2019-01-19T10:42:11.821Z,94879.53
2019-01-19T10:44:42.226Z,94878.72
2019-01-19T10:47:13.902Z,94874.92
2019-01-19T10:49:44.568Z,94869.11
2019-01-19T10:52:14.839Z,94872.49
2019-01-19T10:54:45.623Z,94865.87
2019-01-19T10:57:15.913Z,94868.78
2019-01-19T10:59:46.599Z,94865.92
2019-01-19T11:02:17.215Z,94864.39
2019-01-19T11:04:47.572Z,94860.53
2019-01-19T11:07:18.188Z,94854.00
2019-01-19T11:09:48.970Z,94842.05
2019-01-19T11:12:19.320Z,94843.64
2019-01-19T11:14:49.918Z,94843.22
2019-01-19T11:17:20.698Z,94835.74
2019-01-19T11:19:51.080Z,94834.77
2019-01-19T11:22:21.643Z,94832.83
2019-01-19T11:24:52.439Z,94833.17
2019-01-19T11:27:22.728Z,94836.81
2019-01-19T11:29:53.569Z,94839.34
2019-01-19T11:32:23.901Z,94843.45
2019-01-19T11:34:54.532Z,94847.50
2019-01-19T11:37:25.251Z,94843.45
2019-01-19T11:39:55.750Z,94834.67
2019-01-19T11:42:26.449Z,94832.32
2019-01-19T11:44:57.232Z,94834.64
2019-01-19T11:47:27.629Z,94831.50
2019-01-19T11:49:57.963Z,94833.90
2019-01-19T11:52:28.880Z,94827.98
2019-01-19T11:54:59.581Z,94828.90
2019-01-19T11:57:29.973Z,94835.38
2019-01-19T12:00:00.589Z,94829.98
2019-01-19T12:02:36.926Z,94826.91
2019-01-19T12:05:03.226Z,94821.88
2019-01-19T12:07:33.881Z,94818.22
2019-01-19T12:10:05.833Z,94820.45
2019-01-19T12:12:36.131Z,94818.11
2019-01-19T12:15:09.214Z,94823.77
2019-01-19T12:17:39.714Z,94822.72
2019-01-19T12:20:16.347Z,94821.58
2019-01-19T12:22:46.859Z,94819.06
2019-01-19T12:25:19.878Z,94821.98
2019-01-19T12:27:50.217Z,94820.94
2019-01-19T12:30:22.868Z,94819.08
2019-01-19T12:32:53.491Z,94815.36
2019-01-19T12:35:24.106Z,94815.28
2019-01-19T12:37:55.012Z,94812.61
2019-01-19T12:40:26.275Z,94815.92
2019-01-19T12:43:01.901Z,94812.82
2019-01-19T12:45:44.679Z,94810.89
2019-01-19T12:48:15.013Z,94808.22
2019-01-19T12:50:45.363Z,94807.77
2019-01-19T12:53:16.131Z,94804.52
2019-01-19T12:55:46.651Z,94811.45
2019-01-19T12:58:17.044Z,94803.58
2019-01-19T13:00:47.667Z,94801.05
2019-01-19T13:03:18.295Z,94807.98
2019-01-19T13:06:12.338Z,94806.34
2019-01-19T13:08:42.750Z,94810.42
2019-01-19T13:12:06.089Z,94808.26
2019-01-19T13:14:41.243Z,94797.23
2019-01-19T13:17:44.603Z,94808.84
2019-01-19T13:20:28.202Z,94801.20
2019-01-19T13:23:50.526Z,94796.67
2019-01-19T13:27:04.931Z,94798.55
2019-01-19T13:30:28.113Z,94796.88
2019-01-19T13:33:28.875Z,94796.03
2019-01-19T13:36:52.697Z,94792.69
2019-01-19T13:39:59.286Z,94795.09
2019-01-19T13:43:10.843Z,94792.69
2019-01-19T13:45:50.233Z,94792.55
2019-01-19T13:48:56.020Z,94791.70
2019-01-19T13:52:12.645Z,94795.00
2019-01-19T13:55:08.704Z,94790.55
2019-01-19T13:58:18.828Z,94785.05
2019-01-19T14:01:27.231Z,94788.95
2019-01-19T14:04:12.224Z,94787.50
2019-01-19T14:07:22.300Z,94786.30
2019-01-19T14:10:20.473Z,94787.11
2019-01-19T14:13:28.930Z,94792.59
2019-01-19T14:16:22.426Z,94791.67
2019-01-19T14:19:36.169Z,94794.59
2019-01-19T14:22:29.908Z,94788.66
2019-01-19T14:25:23.024Z,94790.34
2019-01-19T14:28:49.287Z,94812.17
2019-01-19T14:31:48.542Z,94791.45
2019-01-19T14:34:38.056Z,94790.26
2019-01-19T14:37:55.392Z,94788.16
2019-01-19T14:40:36.261Z,94776.36
2019-01-19T14:43:47.352Z,94779.52
2019-01-19T14:46:59.035Z,94782.48
2019-01-19T14:50:09.225Z,94784.75
2019-01-19T14:53:28.081Z,94785.74
2019-01-19T14:56:48.370Z,94780.94
2019-01-19T14:59:51.802Z,94784.75
2019-01-19T15:02:58.881Z,94782.25
2019-01-19T15:05:56.016Z,94778.18
2019-01-19T15:08:53.570Z,94786.46
2019-01-19T15:11:52.159Z,94780.91
2019-01-19T15:15:18.105Z,94777.80
2019-01-19T15:18:41.535Z,94776.62
2019-01-19T15:21:52.164Z,94773.53
2019-01-19T15:24:36.154Z,94774.83
2019-01-19T15:27:39.333Z,94779.41
2019-01-19T15:30:53.861Z,94778.53
2019-01-19T15:34:01.160Z,94780.60
2019-01-19T15:37:03.502Z,94784.77
2019-01-19T15:39:56.621Z,94790.89
2019-01-19T15:42:58.001Z,94787.50
2019-01-19T15:46:24.164Z,94793.65
2019-01-19T15:49:20.570Z,94785.81
2019-01-19T15:52:20.338Z,94788.28
2019-01-19T15:55:29.114Z,94788.33
2019-01-19T15:58:58.698Z,94798.55
2019-01-19T16:02:18.770Z,94789.45
2019-01-19T16:05:35.162Z,94792.72
2019-01-19T16:08:29.366Z,94791.21
2019-01-19T16:11:45.652Z,94792.88
2019-01-19T16:15:18.281Z,94794.67
2019-01-19T16:18:44.487Z,94791.17
2019-01-19T16:21:48.776Z,94794.41
2019-01-19T16:24:57.290Z,94796.50
2019-01-19T16:27:55.385Z,94795.12
2019-01-19T16:31:08.801Z,94790.05
2019-01-19T16:34:09.744Z,94778.92
2019-01-19T16:36:58.722Z,94798.03
2019-01-19T16:40:00.360Z,94789.56
2019-01-19T16:42:51.307Z,94797.63
2019-01-19T16:45:49.775Z,94799.62
2019-01-19T16:48:51.561Z,94806.09
2019-01-19T16:52:13.327Z,94799.59
2019-01-19T16:55:08.295Z,94819.33
2019-01-19T16:58:07.193Z,94801.75
2019-01-19T17:01:36.694Z,94806.39
2019-01-19T17:04:34.746Z,94804.34
2019-01-19T17:08:04.224Z,94809.78
2019-01-19T17:10:48.900Z,94808.09
2019-01-19T17:13:47.973Z,94807.95
2019-01-19T17:17:04.498Z,94806.16
2019-01-19T17:20:11.562Z,94805.75
2019-01-19T17:23:25.756Z,94804.15
2019-01-19T17:26:55.123Z,94804.00
2019-01-19T17:30:21.813Z,94803.33
2019-01-19T17:33:21.094Z,94827.61
2019-01-19T17:36:29.873Z,94805.86
2019-01-19T17:39:57.023Z,94809.24
2019-01-19T17:43:10.854Z,94809.22
2019-01-19T17:46:25.273Z,94806.48
2019-01-19T17:49:19.802Z,94810.97
2019-01-19T17:52:16.720Z,94811.69
2019-01-19T17:55:29.943Z,94812.89
2019-01-19T17:58:27.378Z,94812.41
2019-01-19T18:02:09.048Z,94805.46
2019-01-19T18:04:53.914Z,94811.52
2019-01-19T18:08:05.378Z,94808.33
2019-01-19T18:10:55.392Z,94813.70
2019-01-19T18:13:58.583Z,94813.20
2019-01-19T18:17:14.530Z,94812.59
2019-01-19T18:20:00.508Z,94819.94
2019-01-19T18:23:27.462Z,94817.91
2019-01-19T18:26:44.940Z,94811.84
2019-01-19T18:30:00.638Z,94826.69
2019-01-19T18:33:14.054Z,94813.33
2019-01-19T18:36:26.108Z,94812.73
2019-01-19T18:39:09.476Z,94816.21
2019-01-19T18:42:03.278Z,94820.28
2019-01-19T18:45:03.484Z,94817.59
2019-01-19T18:47:46.144Z,94815.93
2019-01-19T18:50:50.009Z,94821.64
2019-01-19T18:53:59.705Z,94818.50
2019-01-19T18:57:17.311Z,94817.20
2019-01-19T19:00:40.899Z,94816.05
2019-01-19T19:03:45.714Z,94811.75
2019-01-19T19:06:50.799Z,94811.98
2019-01-19T19:10:03.337Z,94796.66
2019-01-19T19:13:14.270Z,94807.03
2019-01-19T19:16:07.498Z,94817.65
2019-01-19T19:19:09.461Z,94811.41
2019-01-19T19:22:28.941Z,94822.74
2019-01-19T19:25:33.513Z,94821.26
2019-01-19T19:28:54.541Z,94816.30
2019-01-19T19:31:50.418Z,94820.86
2019-01-19T19:35:01.879Z,94821.47
2019-01-19T19:38:18.000Z,94824.36
2019-01-19T19:41:05.085Z,94820.86
2019-01-19T19:44:23.485Z,94828.22
2019-01-19T19:47:40.666Z,94822.85
2019-01-19T19:50:56.504Z,94821.28
2019-01-19T19:53:26.852Z,94827.83
2019-01-19T19:55:55.388Z,94825.23
2019-01-19T19:58:26.246Z,94828.61
2019-01-19T20:00:56.527Z,94829.61
2019-01-19T20:03:27.008Z,94837.48
2019-01-19T20:05:57.785Z,94832.11
2019-01-19T20:08:28.116Z,94832.80
2019-01-19T20:10:58.903Z,94825.53
2019-01-19T20:13:29.806Z,94825.65
2019-01-19T20:16:00.166Z,94822.75
2019-01-19T20:18:30.904Z,94829.32
2019-01-19T20:21:01.616Z,94832.89
2019-01-19T20:23:33.257Z,94827.81
2019-01-19T20:26:03.788Z,94831.28
2019-01-19T20:28:34.159Z,94821.94
2019-01-19T20:31:04.577Z,94543.37
2019-01-19T20:33:35.352Z,94820.66
2019-01-19T20:36:06.068Z,94833.86
2019-01-19T20:38:37.316Z,94825.45
2019-01-19T20:41:07.713Z,94823.95
2019-01-19T20:43:38.223Z,94823.35
2019-01-19T20:46:08.548Z,94814.61
2019-01-19T20:48:39.473Z,94819.56
2019-01-19T20:51:10.024Z,94816.30
2019-01-19T20:53:40.681Z,94825.55
2019-01-19T20:56:11.023Z,94827.43
2019-01-19T20:58:41.590Z,94822.55
2019-01-19T21:01:12.068Z,94837.74
2019-01-19T21:03:42.587Z,94833.48
2019-01-19T21:06:12.916Z,94837.45
2019-01-19T21:08:43.787Z,94830.77
2019-01-19T21:11:14.158Z,94832.20
2019-01-19T21:13:44.498Z,94829.11
2019-01-19T21:16:15.150Z,94835.16
2019-01-19T21:18:45.942Z,94827.41
2019-01-19T21:21:17.392Z,94831.27
2019-01-19T21:23:47.949Z,94836.86
2019-01-19T21:26:18.584Z,94831.79
2019-01-19T21:28:49.627Z,94834.75
2019-01-19T21:31:20.264Z,94827.98
2019-01-19T21:33:50.574Z,94827.38
2019-01-19T21:36:21.326Z,94838.66
2019-01-19T21:38:51.721Z,94834.51
2019-01-19T21:41:22.041Z,94841.77
2019-01-19T21:43:52.502Z,94841.61
2019-01-19T21:46:23.101Z,94837.61
2019-01-19T21:48:53.438Z,94843.50
2019-01-19T21:51:23.853Z,94837.53
2019-01-19T21:53:54.625Z,94757.35
2019-01-19T21:56:24.977Z,94854.12
2019-01-19T21:58:55.381Z,94848.73
2019-01-19T22:01:26.063Z,94846.27
2019-01-19T22:03:56.623Z,94846.00
2019-01-19T22:06:27.133Z,94842.80
2019-01-19T22:08:57.807Z,94853.10
2019-01-19T22:11:28.227Z,94846.85
2019-01-19T22:13:58.762Z,94847.97
2019-01-19T22:16:29.384Z,94850.95
2019-01-19T22:19:01.085Z,94848.86
2019-01-19T22:21:31.933Z,94842.41
2019-01-19T22:24:02.732Z,94841.55
2019-01-19T22:26:33.869Z,94844.42
2019-01-19T22:29:04.798Z,94845.48
2019-01-19T22:31:35.467Z,94845.11
2019-01-19T22:34:06.123Z,94836.78
2019-01-19T22:36:37.591Z,94839.44
2019-01-19T22:39:08.820Z,94837.44
2019-01-19T22:41:39.378Z,94835.56
2019-01-19T22:44:10.142Z,94839.73
2019-01-19T22:46:40.914Z,94836.65
2019-01-19T22:49:11.691Z,94836.27
2019-01-19T22:51:42.473Z,94826.72
2019-01-19T22:54:12.980Z,94829.78
2019-01-19T22:56:43.535Z,94823.95
2019-01-19T22:59:14.125Z,94826.72
2019-01-19T23:01:51.982Z,94811.90
2019-01-19T23:04:22.676Z,94815.78
2019-01-19T23:06:53.269Z,94815.38
2019-01-19T23:09:23.637Z,94817.95
2019-01-19T23:11:54.213Z,94801.19
2019-01-19T23:14:25.361Z,94809.80
2019-01-19T23:16:56.064Z,94804.03
2019-01-19T23:19:26.645Z,94804.13
2019-01-19T23:21:57.429Z,94798.97
2019-01-19T23:24:28.046Z,94803.16
2019-01-19T23:27:05.099Z,94805.21
2019-01-19T23:29:35.758Z,94800.83
2019-01-19T23:32:06.555Z,94793.75
2019-01-19T23:34:37.129Z,94787.72
2019-01-19T23:37:07.469Z,94794.96
2019-01-19T23:39:37.760Z,94788.31
2019-01-19T23:42:08.654Z,94783.85
2019-01-19T23:44:39.111Z,94786.52
2019-01-19T23:47:09.854Z,94781.86
2019-01-19T23:49:40.602Z,94778.86
2019-01-19T23:52:11.482Z,94782.94
2019-01-19T23:54:42.891Z,94778.09
2019-01-19T23:57:13.690Z,94786.64
2019-01-19T23:59:44.310Z,94783.51
